메인 페이지
METAR-TAF:

METAR-TAF

공항 :

말라보, 적도 기니

위도: 03-45-18N, 경도: 08-42-31E, 고도: 23m

현재 날씨관측

예보는 1 시간 8분 전, 15:00시(UTC)에 발표되었습니다.
8kt남서풍과 서북서풍을 오가는
온도 31°C
습도 66%
기압 1010 hPa
시정 10km 이상
고도 1000ft 상공 구름 조금

METAR: FGSL 181500Z 27008KT 230V300 9999 FEW010 31/24 Q1010 NOSIG

시각: 17:08 (16:08 UTC)

예보

예보는 5 시간 8분 전, 11:00시(UTC)에 발표되었습니다.
예보 대상 시간: 18일 12시부터 19일 18시까지 (UTC)
7kt
시정: 6000m
고도 1200ft 상공 구름 보통
일시적
18일 14시부터 18일 20시까지 (UTC)
고도 1200ft 상공 구름 많음
고도 2000ft 상공 구름 조금, 적란운.
일시적
18일 22시부터 19일 08시까지 (UTC)
고도 1000ft 상공 구름 많음
고도 1800ft 상공 구름 조금, 적란운.
뇌우

TAF: FGSL 181100Z 1812/1918 26007KT 6000 SCT012 TEMPO 1814/1820 BKN012 FEW020CB TEMPO 1822/1908 TS BKN010 FEW018CB

4,000개 이상의 공항 관측 자료 및 예보 (METAR 및 TAF 보고).

지도상에서 검색 가능한 기상관측소가 노란 점과 빨간 점으로 표시되어 있습니다.

기상관측소 명을 보려면 표시 위로 마우스를 이동하세요.

날씨 관측과 예보를 보려면 클릭하세요.

지도 변경 : 확대하려면 엑스 표시가 있는 녹색 버튼, 축소하려면 빼기 표시가 있는 녹색 버튼, 다음 페이지의 지도를 보려면 녹색 화살표를 클릭하세요.


METAR-TAF: